地図

経路データ

SID SEASON NUMBER BASIN SUBBASIN NAME ISO_TIME NATURE LAT LON WMO_WIND WMO_PRES WMO_AGENCY TRACK_TYPE DIST2LAND LANDFALL IFLAG USA_AGENCY USA_ATCF_ID USA_LAT USA_LON USA_RECORD USA_STATUS USA_WIND USA_PRES USA_SSHS USA_R34_NE USA_R34_SE USA_R34_SW USA_R34_NW USA_R50_NE USA_R50_SE USA_R50_SW USA_R50_NW USA_R64_NE USA_R64_SE USA_R64_SW USA_R64_NW USA_POCI USA_ROCI USA_RMW USA_EYE TOKYO_LAT TOKYO_LON TOKYO_GRADE TOKYO_WIND TOKYO_PRES TOKYO_R50_DIR TOKYO_R50_LONG TOKYO_R50_SHORT TOKYO_R30_DIR TOKYO_R30_LONG TOKYO_R30_SHORT TOKYO_LAND CMA_LAT CMA_LON CMA_CAT CMA_WIND CMA_PRES HKO_LAT HKO_LON HKO_CAT HKO_WIND HKO_PRES NEWDELHI_LAT NEWDELHI_LON NEWDELHI_GRADE NEWDELHI_WIND NEWDELHI_PRES NEWDELHI_CI NEWDELHI_DP NEWDELHI_POCI REUNION_LAT REUNION_LON REUNION_TYPE REUNION_WIND REUNION_PRES REUNION_TNUM REUNION_CI REUNION_RMW REUNION_R34_NE REUNION_R34_SE REUNION_R34_SW REUNION_R34_NW REUNION_R50_NE REUNION_R50_SE REUNION_R50_SW REUNION_R50_NW REUNION_R64_NE REUNION_R64_SE REUNION_R64_SW REUNION_R64_NW BOM_LAT BOM_LON BOM_TYPE BOM_WIND BOM_PRES BOM_TNUM BOM_CI BOM_RMW BOM_R34_NE BOM_R34_SE BOM_R34_SW BOM_R34_NW BOM_R50_NE BOM_R50_SE BOM_R50_SW BOM_R50_NW BOM_R64_NE BOM_R64_SE BOM_R64_SW BOM_R64_NW BOM_ROCI BOM_POCI BOM_EYE BOM_POS_METHOD BOM_PRES_METHOD NADI_LAT NADI_LON NADI_CAT NADI_WIND NADI_PRES WELLINGTON_LAT WELLINGTON_LON WELLINGTON_WIND WELLINGTON_PRES DS824_LAT DS824_LON DS824_STAGE DS824_WIND DS824_PRES TD9636_LAT TD9636_LON TD9636_STAGE TD9636_WIND TD9636_PRES TD9635_LAT TD9635_LON TD9635_WIND TD9635_PRES TD9635_ROCI NEUMANN_LAT NEUMANN_LON NEUMANN_CLASS NEUMANN_WIND NEUMANN_PRES MLC_LAT MLC_LON MLC_CLASS MLC_WIND MLC_PRES USA_GUST BOM_GUST BOM_GUST_PER REUNION_GUST REUNION_GUST_PER USA_SEAHGT USA_SEARAD_NE USA_SEARAD_SE USA_SEARAD_SW USA_SEARAD_NW STORM_SPEED STORM_DIR
1989191N13322 1989 57 NA NA BARRY 1989-07-09 18:00:00 TS 12.8000 -37.8000 25 1015 hurdat_atl main 1763 1671 O_____________ hurdat_atl AL031989 12.8000 -37.8000 TD 25 1015 -1 20 272
1989191N13322 1989 57 NA NA BARRY 1989-07-09 21:00:00 TS 12.8359 -38.8477 main 1671 1596 P_____________ AL031989 12.8359 -38.8477 TD 25 1015 -1 21 276
1989191N13322 1989 57 NA NA BARRY 1989-07-10 00:00:00 TS 13.0000 -39.9000 25 1015 hurdat_atl main 1587 1531 O_____________ hurdat_atl AL031989 13.0000 -39.9000 TD 25 1015 -1 21 285
1989191N13322 1989 57 NA NA BARRY 1989-07-10 03:00:00 TS 13.3818 -40.9702 main 1522 1474 P_____________ AL031989 13.3818 -40.9702 TD 25 1014 -1 23 293
1989191N13322 1989 57 NA NA BARRY 1989-07-10 06:00:00 TS 13.9000 -42.1000 25 1014 hurdat_atl main 1475 1431 O_____________ hurdat_atl AL031989 13.9000 -42.1000 TD 25 1014 -1 25 294
1989191N13322 1989 57 NA NA BARRY 1989-07-10 09:00:00 TS 14.4199 -43.3429 main 1431 1401 P_____________ AL031989 14.4199 -43.3429 TD 27 1013 -1 27 294
1989191N13322 1989 57 NA NA BARRY 1989-07-10 12:00:00 TS 15.0000 -44.6000 30 1013 hurdat_atl main 1403 1381 O_____________ hurdat_atl AL031989 15.0000 -44.6000 TD 30 1013 -1 27 297
1989191N13322 1989 57 NA NA BARRY 1989-07-10 15:00:00 TS 15.6276 -45.8398 main 1381 1377 P_____________ AL031989 15.6276 -45.8398 TD 30 1013 -1 26 300
1989191N13322 1989 57 NA NA BARRY 1989-07-10 18:00:00 TS 16.3000 -46.9000 30 1013 hurdat_atl main 1390 1385 O_____________ hurdat_atl AL031989 16.3000 -46.9000 TD 30 1013 -1 22 309
1989191N13322 1989 57 NA NA BARRY 1989-07-10 21:00:00 TS 17.0141 -47.6481 main 1427 1427 P_____________ AL031989 17.0141 -47.6481 TD 32 1012 -1 19 318
1989191N13322 1989 57 NA NA BARRY 1989-07-11 00:00:00 TS 17.7000 -48.2000 35 1012 hurdat_atl main 1473 1473 O_____________ hurdat_atl AL031989 17.7000 -48.2000 TS 35 1012 0 16 321
1989191N13322 1989 57 NA NA BARRY 1989-07-11 03:00:00 TS 18.2795 -48.7083 main 1511 1507 P_____________ AL031989 18.2795 -48.7083 TS 37 1011 0 15 319
1989191N13322 1989 57 NA NA BARRY 1989-07-11 06:00:00 TS 18.8000 -49.2000 40 1011 hurdat_atl main 1542 1541 O_____________ hurdat_atl AL031989 18.8000 -49.2000 TS 40 1011 0 14 316
1989191N13322 1989 57 NA NA BARRY 1989-07-11 09:00:00 TS 19.3148 -49.7704 main 1539 1525 P_____________ AL031989 19.3148 -49.7704 TS 40 1010 0 15 311
1989191N13322 1989 57 NA NA BARRY 1989-07-11 12:00:00 TS 19.8000 -50.4000 40 1010 hurdat_atl main 1525 1501 O_____________ hurdat_atl AL031989 19.8000 -50.4000 TS 40 1010 0 16 308
1989191N13322 1989 57 NA NA BARRY 1989-07-11 15:00:00 TS 20.2725 -51.0926 main 1509 1468 P_____________ AL031989 20.2725 -51.0926 TS 40 1008 0 16 304
1989191N13322 1989 57 NA NA BARRY 1989-07-11 18:00:00 TS 20.7000 -51.8000 40 1007 hurdat_atl main 1468 1401 O_____________ hurdat_atl AL031989 20.7000 -51.8000 TS 40 1007 0 15 301
1989191N13322 1989 57 NA NA BARRY 1989-07-11 21:00:00 TS 21.0650 -52.4953 main 1403 1348 P_____________ AL031989 21.0650 -52.4953 TS 42 1006 0 14 300
1989191N13322 1989 57 NA NA BARRY 1989-07-12 00:00:00 TS 21.4000 -53.1000 45 1005 hurdat_atl main 1348 1316 O_____________ hurdat_atl AL031989 21.4000 -53.1000 TS 45 1005 0 12 305
1989191N13322 1989 57 NA NA BARRY 1989-07-12 03:00:00 TS 21.7497 -53.5603 main 1306 1285 P_____________ AL031989 21.7497 -53.5603 TS 45 1005 0 10 313
1989191N13322 1989 57 NA NA BARRY 1989-07-12 06:00:00 TS 22.1000 -53.9000 45 1005 hurdat_atl main 1288 1268 O_____________ hurdat_atl AL031989 22.1000 -53.9000 TS 45 1005 0 9 321
1989191N13322 1989 57 NA NA BARRY 1989-07-12 09:00:00 TS 22.4498 -54.1728 main 1268 1260 P_____________ AL031989 22.4498 -54.1728 TS 45 1005 0 8 327
1989191N13322 1989 57 NA NA BARRY 1989-07-12 12:00:00 TS 22.8000 -54.4000 45 1005 hurdat_atl main 1264 1253 O_____________ hurdat_atl AL031989 22.8000 -54.4000 TS 45 1005 0 9 329
1989191N13322 1989 57 NA NA BARRY 1989-07-12 15:00:00 TS 23.1800 -54.6500 main 1262 1248 P_____________ AL031989 23.1800 -54.6500 TS 42 1006 0 8 327
1989191N13322 1989 57 NA NA BARRY 1989-07-12 18:00:00 TS 23.5000 -54.9000 40 1008 hurdat_atl main 1248 1234 O_____________ hurdat_atl AL031989 23.5000 -54.9000 TS 40 1008 0 7 318
1989191N13322 1989 57 NA NA BARRY 1989-07-12 21:00:00 TS 23.6874 -55.1427 main 1239 1217 P_____________ AL031989 23.6874 -55.1427 TS 40 1010 0 5 303
1989191N13322 1989 57 NA NA BARRY 1989-07-13 00:00:00 TS 23.8000 -55.4000 40 1012 hurdat_atl main 1217 1195 O_____________ hurdat_atl AL031989 23.8000 -55.4000 TS 40 1012 0 6 296
1989191N13322 1989 57 NA NA BARRY 1989-07-13 03:00:00 TS 23.9300 -55.6924 main 1195 1175 P_____________ AL031989 23.9300 -55.6924 TS 37 1013 0 6 290
1989191N13322 1989 57 NA NA BARRY 1989-07-13 06:00:00 TS 24.0000 -56.0000 35 1014 hurdat_atl main 1175 1148 O_____________ hurdat_atl AL031989 24.0000 -56.0000 TS 35 1014 0 5 275
1989191N13322 1989 57 NA NA BARRY 1989-07-13 09:00:00 TS 23.9798 -56.2850 main 1148 1117 P_____________ AL031989 23.9798 -56.2850 TS 35 1015 0 6 260
1989191N13322 1989 57 NA NA BARRY 1989-07-13 12:00:00 TS 23.9000 -56.6000 35 1016 hurdat_atl main 1117 1076 O_____________ hurdat_atl AL031989 23.9000 -56.6000 TS 35 1016 0 7 256
1989191N13322 1989 57 NA NA BARRY 1989-07-13 15:00:00 TS 23.8226 -56.9924 main 1076 1036 P_____________ AL031989 23.8226 -56.9924 TS 32 1016 -1 8 255
1989191N13322 1989 57 NA NA BARRY 1989-07-13 18:00:00 TS 23.7000 -57.4000 30 1017 hurdat_atl main 1036 998 O_____________ hurdat_atl AL031989 23.7000 -57.4000 TD 30 1017 -1 8 247
1989191N13322 1989 57 NA NA BARRY 1989-07-13 21:00:00 TS 23.5176 -57.7652 main 990 952 P_____________ AL031989 23.5176 -57.7652 TD 30 1017 -1 8 238
1989191N13322 1989 57 NA NA BARRY 1989-07-14 00:00:00 TS 23.3000 -58.1000 30 1018 hurdat_atl main 952 O_____________ hurdat_atl AL031989 23.3000 -58.1000 TD 30 1018 -1 8 235

IBTrACS Databaseについて

本データベースは、米国NOAAが公開する1842年以降の世界の熱帯低気圧のベストトラックデータアーカイブInternational Best Track Archive for Climate Stewardship (IBTrACS)を、ウェブで閲覧しやすい形式に変換したものです。

最終更新日:2021-10-08